Thayer, Iowa
Current Conditions -  °F | °C
As of 12:35 PM on Wednesday 26 Nov 2014 (Local Time) from KCSQ Reporting Station
Haze Haze  
Wind Chill: 15°   Ceiling: 400
Heat Index: 28°   Visibility: 2.5mi
Dew Point: 28°   Wind: 20mph
Humidity: 100%   Direction: 350°N
Pressure: 29.97"   Gusts: NA
Location:  41.03°N, 94.05°W
Report Text: KCSQ 261835Z AUTO 35017KT 2 1/2SM BR OVC004 M02/M02 A2997 RMK AO2
Loading
Personal Weather Stations






























Interactive Weather Map New forecast layout! Learn more

10-Day Weather Forecast

Advertisements
Track Severe Weather on mobile